Time;durP1;ratioP1;P1;durP2;ratioP2;P2;SDS_P1;SDS_P2;PMS_P1;PMS_P2;Temp;Humidity;BMP_temperature;BMP_pressure;BME280_temperature;BME280_humidity;BME280_pressure;Samples;Min_cycle;Max_cycle;Signal;HPM_P1;HPM_P2
2022/08/26 00:02:11;;;;;;;48.55;7.03;;;24.90;54.40;;;;;;1904649;75;20984;-61
2022/08/26 00:04:41;;;;;;;63.00;7.75;;;24.80;54.30;;;;;;1904633;75;21027;-61
2022/08/26 00:07:10;;;;;;;35.45;5.62;;;24.70;54.20;;;;;;1904731;75;21121;-61
2022/08/26 00:09:40;;;;;;;40.43;7.10;;;24.60;54.30;;;;;;1904581;75;21106;-61
2022/08/26 00:12:10;;;;;;;51.55;6.20;;;24.60;54.40;;;;;;1904591;75;21078;-61
2022/08/26 00:14:39;;;;;;;43.42;6.47;;;24.60;54.40;;;;;;1904625;75;20992;-61
2022/08/26 00:17:08;;;;;;;35.28;5.60;;;24.70;54.80;;;;;;1904712;75;21000;-61
2022/08/26 00:19:38;;;;;;;48.63;7.00;;;24.70;55.00;;;;;;1904663;75;21024;-61
2022/08/26 00:22:07;;;;;;;50.60;7.28;;;24.80;54.80;;;;;;1904580;75;21086;-61
2022/08/26 00:24:37;;;;;;;45.52;6.62;;;24.90;54.60;;;;;;1904607;75;21061;-61
2022/08/26 00:27:07;;;;;;;48.05;8.30;;;24.90;54.40;;;;;;1904568;75;21003;-61
2022/08/26 00:29:36;;;;;;;50.00;8.45;;;24.90;54.70;;;;;;1904551;75;21006;-61
2022/08/26 00:32:06;;;;;;;53.55;7.20;;;24.90;55.00;;;;;;1904672;75;21083;-61
2022/08/26 00:34:36;;;;;;;47.78;7.33;;;24.90;55.10;;;;;;1904544;75;21099;-61
2022/08/26 00:37:06;;;;;;;47.17;6.53;;;24.90;55.30;;;;;;1904537;75;21005;-61
2022/08/26 00:39:35;;;;;;;39.38;6.60;;;24.80;55.60;;;;;;1904514;75;21062;-61
2022/08/26 00:42:04;;;;;;;40.03;5.87;;;24.80;55.90;;;;;;1904433;75;21029;-61
2022/08/26 00:44:34;;;;;;;35.45;6.10;;;24.80;56.80;;;;;;1904565;75;21120;-61
2022/08/26 00:47:05;;;;;;;52.30;6.58;;;24.80;56.70;;;;;;1904404;75;21029;-61
2022/08/26 00:49:43;;;;;;;41.63;7.67;;;24.80;57.00;;;;;;1904602;75;21477;-61
2022/08/26 00:52:15;;;;;;;44.98;6.67;;;24.80;57.30;;;;;;1904570;75;21037;-61
2022/08/26 00:54:47;;;;;;;53.08;8.23;;;24.80;57.60;;;;;;1904471;75;21049;-61
2022/08/26 00:57:18;;;;;;;48.95;8.00;;;24.90;57.30;;;;;;1904561;75;21448;-61
2022/08/26 00:59:50;;;;;;;47.17;8.18;;;24.90;57.10;;;;;;1904424;75;21005;-61
2022/08/26 01:02:19;;;;;;;36.85;5.97;;;24.90;57.30;;;;;;1904550;75;21049;-61
2022/08/26 01:04:51;;;;;;;53.10;7.45;;;24.80;57.40;;;;;;1904487;75;21046;-61
2022/08/26 01:07:21;;;;;;;53.58;8.00;;;24.80;57.30;;;;;;1904408;75;21064;-61
2022/08/26 01:09:50;;;;;;;46.23;8.60;;;24.80;57.50;;;;;;1904533;75;21069;-61
2022/08/26 01:12:20;;;;;;;32.98;5.87;;;24.70;57.60;;;;;;1904404;75;21065;-61
2022/08/26 01:14:50;;;;;;;43.35;7.65;;;24.60;58.00;;;;;;1904582;75;21153;-61
2022/08/26 01:17:20;;;;;;;41.55;6.45;;;24.50;58.40;;;;;;1904429;75;21460;-61
2022/08/26 01:19:54;;;;;;;46.58;7.50;;;24.30;58.70;;;;;;1904391;75;21017;-61
2022/08/26 01:22:24;;;;;;;;;;;24.30;59.60;;;;;;1906024;75;21540;-61
2022/08/26 01:24:53;;;;;;;57.98;9.53;;;24.30;60.40;;;;;;1891564;75;20104;-61
2022/08/26 01:27:23;;;;;;;41.37;6.47;;;24.20;60.40;;;;;;1888550;76;21010;-61
2022/08/26 01:29:52;;;;;;;48.25;7.70;;;24.10;60.90;;;;;;1888660;76;21006;-61
2022/08/26 01:32:23;;;;;;;36.55;5.72;;;24.00;61.30;;;;;;1888527;76;21030;-61
2022/08/26 01:34:53;;;;;;;36.95;6.00;;;24.00;61.50;;;;;;1888576;76;21015;-61
2022/08/26 01:37:27;;;;;;;45.83;6.40;;;24.10;61.40;;;;;;1888534;76;21104;-61
2022/08/26 01:39:58;;;;;;;30.32;4.62;;;24.10;61.80;;;;;;1888552;76;21034;-61
2022/08/26 01:42:28;;;;;;;48.17;6.87;;;24.10;62.50;;;;;;1888598;76;21030;-61
2022/08/26 01:44:59;;;;;;;41.83;7.00;;;24.10;62.80;;;;;;1888634;76;21124;-61
2022/08/26 01:47:31;;;;;;;34.70;6.35;;;24.10;63.10;;;;;;1879175;76;21027;-61
2022/08/26 01:50:03;;;;;;;55.48;8.20;;;24.20;63.00;;;;;;1888645;76;21155;-62
2022/08/26 01:52:35;;;;;;;37.35;6.83;;;24.20;63.20;;;;;;1888536;76;21119;-62
2022/08/26 01:55:06;;;;;;;43.63;6.70;;;24.20;62.70;;;;;;1888692;76;21441;-62
2022/08/26 01:57:36;;;;;;;38.53;6.22;;;24.20;62.40;;;;;;1888545;76;21018;-61
2022/08/26 02:00:08;;;;;;;44.27;7.62;;;24.20;63.00;;;;;;1888497;76;21038;-62
2022/08/26 02:02:40;;;;;;;43.48;7.37;;;24.10;63.40;;;;;;1888428;76;21152;-62
2022/08/26 02:05:12;;;;;;;37.28;5.45;;;24.20;63.30;;;;;;1887592;76;21484;-62
2022/08/26 02:07:43;;;;;;;30.23;6.50;;;24.20;63.50;;;;;;1888491;76;21151;-61
2022/08/26 02:10:14;;;;;;;39.73;8.28;;;24.20;63.40;;;;;;1888659;76;21042;-62
2022/08/26 02:12:43;;;;;;;55.23;8.83;;;24.20;63.80;;;;;;1888472;76;21033;-62
2022/08/26 02:15:13;;;;;;;48.90;7.92;;;24.20;62.70;;;;;;1888520;76;20998;-61
2022/08/26 02:17:45;;;;;;;36.03;6.45;;;24.10;62.40;;;;;;1888433;76;21069;-62
2022/08/26 02:20:17;;;;;;;45.12;6.37;;;24.10;62.60;;;;;;1888530;76;21080;-61
2022/08/26 02:22:47;;;;;;;35.10;6.05;;;24.00;61.70;;;;;;1888568;76;21104;-62
2022/08/26 02:25:22;;;;;;;36.20;5.10;;;24.00;61.70;;;;;;1872573;75;21132;-62
2022/08/26 02:27:53;;;;;;;31.52;5.28;;;24.00;62.30;;;;;;1865596;77;21131;-61
2022/08/26 02:30:25;;;;;;;33.02;5.92;;;24.10;62.50;;;;;;1865759;77;21022;-62
2022/08/26 02:32:55;;;;;;;51.70;7.40;;;24.20;62.90;;;;;;1864563;77;21563;-62
2022/08/26 02:35:24;;;;;;;40.88;7.55;;;24.20;62.60;;;;;;1865662;77;21092;-61
2022/08/26 02:37:54;;;;;;;35.80;5.72;;;24.20;62.80;;;;;;1865487;77;21030;-62
2022/08/26 02:40:26;;;;;;;32.65;5.58;;;24.20;63.20;;;;;;1865611;77;21002;-62
2022/08/26 02:42:55;;;;;;;37.42;5.37;;;24.20;63.40;;;;;;1865701;77;21022;-62
2022/08/26 02:45:26;;;;;;;33.30;5.22;;;24.20;63.50;;;;;;1865629;77;21100;-62
2022/08/26 02:47:56;;;;;;;34.35;5.15;;;24.20;63.60;;;;;;1865503;76;21088;-62
2022/08/26 02:50:27;;;;;;;33.83;6.37;;;24.20;63.80;;;;;;1865609;77;21132;-62
2022/08/26 02:52:57;;;;;;;46.55;7.62;;;24.20;64.10;;;;;;1865580;77;21037;-62
2022/08/26 02:55:26;;;;;;;36.75;7.85;;;24.20;64.00;;;;;;1865594;77;21072;-62
2022/08/26 02:57:55;;;;;;;39.98;6.83;;;24.20;64.10;;;;;;1865641;77;21421;-62
2022/08/26 03:00:25;;;;;;;44.60;5.67;;;24.10;63.90;;;;;;1865508;77;21030;-62
2022/08/26 03:02:55;;;;;;;44.55;7.20;;;24.10;64.10;;;;;;1865579;77;21124;-62
2022/08/26 03:05:25;;;;;;;52.95;8.95;;;24.00;64.20;;;;;;1865648;77;21038;-62
2022/08/26 03:07:54;;;;;;;43.83;8.38;;;24.00;64.30;;;;;;1865638;77;21022;-62
2022/08/26 03:10:24;;;;;;;36.13;6.72;;;24.00;64.30;;;;;;1865757;77;21125;-62
2022/08/26 03:12:53;;;;;;;29.60;6.03;;;24.00;64.80;;;;;;1865643;77;21109;-62
2022/08/26 03:15:23;;;;;;;45.65;7.03;;;24.00;65.20;;;;;;1865792;77;21053;-62
2022/08/26 03:17:53;;;;;;;40.15;7.30;;;24.00;65.10;;;;;;1865605;77;21066;-62
2022/08/26 03:20:23;;;;;;;47.33;8.03;;;24.10;65.00;;;;;;1865750;77;21552;-62
2022/08/26 03:22:54;;;;;;;44.45;5.78;;;24.10;64.90;;;;;;1865757;77;21066;-62
2022/08/26 03:25:24;;;;;;;34.55;5.45;;;24.10;65.10;;;;;;1885741;75;21131;-62
2022/08/26 03:27:54;;;;;;;47.95;7.40;;;24.10;65.00;;;;;;1904441;75;21107;-62
2022/08/26 03:30:43;;;;;;;46.28;7.65;;;24.10;65.00;;;;;;1904579;75;21037;-62
2022/08/26 03:33:14;;;;;;;33.55;7.10;;;24.10;65.10;;;;;;1904583;75;21119;-62
2022/08/26 03:35:44;;;;;;;35.83;6.75;;;24.10;65.30;;;;;;1904448;75;21096;-62
2022/08/26 03:38:14;;;;;;;43.83;7.15;;;24.20;65.50;;;;;;1904735;75;21045;-61
2022/08/26 03:40:44;;;;;;;46.45;10.38;;;24.20;65.00;;;;;;1904518;75;21095;-62
2022/08/26 03:43:15;;;;;;;42.03;9.55;;;24.30;65.00;;;;;;1904577;75;21046;-62
2022/08/26 03:45:45;;;;;;;32.60;6.62;;;24.30;64.80;;;;;;1904417;75;21006;-60
2022/08/26 04:30:07;;;;;;;16.57;4.47;;;25.10;59.60;;;;;;1959080;72;25723;-63
2022/08/26 04:32:37;;;;;;;25.92;3.98;;;25.10;60.00;;;;;;1918330;75;21524;-64
2022/08/26 04:35:07;;;;;;;39.18;4.65;;;25.00;59.60;;;;;;1918383;75;20983;-65
2022/08/26 04:37:36;;;;;;;41.02;5.37;;;24.90;59.30;;;;;;1918146;75;21015;-65
2022/08/26 04:40:08;;;;;;;21.77;3.55;;;24.90;59.30;;;;;;1918244;75;21019;-65
2022/08/26 04:42:38;;;;;;;17.57;3.62;;;24.90;59.30;;;;;;1918356;73;21023;-65
2022/08/26 04:45:08;;;;;;;16.93;3.45;;;24.80;58.90;;;;;;1918362;75;21112;-65
2022/08/26 04:47:37;;;;;;;13.78;3.98;;;24.80;59.00;;;;;;1918387;73;21133;-65
2022/08/26 04:50:08;;;;;;;17.30;3.30;;;24.80;59.10;;;;;;1918189;75;21031;-64
2022/08/26 04:52:37;;;;;;;30.00;4.08;;;24.80;58.80;;;;;;1918241;74;21119;-64
2022/08/26 04:55:07;;;;;;;27.50;5.00;;;24.90;58.60;;;;;;1918142;75;21063;-65
2022/08/26 04:57:37;;;;;;;17.45;3.90;;;24.90;58.40;;;;;;1918382;75;21088;-65
2022/08/26 05:00:09;;;;;;;12.47;3.50;;;24.90;58.00;;;;;;1918259;75;21007;-65
2022/08/26 05:02:38;;;;;;;22.87;4.35;;;25.00;58.00;;;;;;1918206;75;21019;-64
2022/08/26 05:05:08;;;;;;;36.30;5.37;;;24.90;58.00;;;;;;1918177;75;21094;-64
2022/08/26 05:07:38;;;;;;;16.82;5.25;;;25.00;58.00;;;;;;1918181;75;21098;-64
2022/08/26 05:10:08;;;;;;;16.80;3.22;;;25.00;58.00;;;;;;1918262;75;21054;-64
2022/08/26 05:12:37;;;;;;;25.45;4.92;;;25.00;57.80;;;;;;1918187;74;21097;-64
2022/08/26 05:15:09;;;;;;;21.02;4.60;;;25.00;57.70;;;;;;1918301;75;21010;-64
2022/08/26 05:17:38;;;;;;;23.57;3.83;;;25.10;58.00;;;;;;1918158;75;21019;-64
2022/08/26 05:20:08;;;;;;;21.17;3.10;;;25.10;57.70;;;;;;1918130;75;21144;-65
2022/08/26 05:22:38;;;;;;;27.05;3.72;;;25.30;57.40;;;;;;1918226;75;21070;-64
2022/08/26 05:25:07;;;;;;;18.00;3.67;;;25.40;57.30;;;;;;1918206;74;21132;-64
2022/08/26 05:30:32;;;;;;;22.22;3.45;;;25.60;56.30;;;;;;1939118;73;20994;-65
2022/08/26 05:33:02;;;;;;;17.12;2.67;;;25.70;55.80;;;;;;1965404;73;20997;-65
2022/08/26 05:35:33;;;;;;;15.40;2.98;;;25.80;55.20;;;;;;1965356;73;21146;-65
2022/08/26 05:38:03;;;;;;;19.25;4.03;;;25.90;55.30;;;;;;1965391;73;21010;-64
2022/08/26 05:40:35;;;;;;;11.15;2.75;;;26.00;55.40;;;;;;1964948;73;21005;-65
2022/08/26 05:43:09;;;;;;;17.95;3.85;;;26.10;54.90;;;;;;1964562;72;21078;-64
2022/08/26 05:45:35;;;;;;;19.57;3.92;;;26.10;54.70;;;;;;1964047;73;21452;-64
2022/08/26 05:48:11;;;;;;;18.40;3.25;;;26.30;54.60;;;;;;1964556;73;21126;-64
2022/08/26 05:50:39;;;;;;;27.40;4.35;;;26.30;54.30;;;;;;1963999;73;21013;-65
2022/08/26 05:53:10;;;;;;;20.75;3.40;;;26.40;54.40;;;;;;1964406;73;21017;-64
2022/08/26 05:55:47;;;;;;;18.12;4.37;;;26.50;54.10;;;;;;1964461;73;21076;-64
2022/08/26 05:58:21;;;;;;;20.43;4.92;;;26.60;53.90;;;;;;1964385;73;21037;-64
2022/08/26 06:01:24;;;;;;;17.52;3.10;;;26.60;53.80;;;;;;1964902;73;21029;-64
2022/08/26 06:03:59;;;;;;;12.75;3.02;;;26.60;53.60;;;;;;1887508;74;21031;-64
2022/08/26 06:06:31;;;;;;;18.30;4.58;;;26.60;53.30;;;;;;1887688;76;21136;-64
2022/08/26 06:09:02;;;;;;;20.77;3.87;;;26.60;53.50;;;;;;1887554;74;21112;-64
2022/08/26 06:11:32;;;;;;;19.57;3.27;;;26.60;53.50;;;;;;1887551;75;21084;-64
2022/08/26 06:14:04;;;;;;;21.48;4.30;;;26.70;53.60;;;;;;1887634;76;21039;-65
2022/08/26 06:16:37;;;;;;;38.92;18.40;;;26.80;53.60;;;;;;1887516;75;21038;-64
2022/08/26 06:19:07;;;;;;;23.15;4.20;;;26.90;53.80;;;;;;1919523;75;21035;-65
2022/08/26 06:21:38;;;;;;;20.77;3.45;;;26.90;54.40;;;;;;1938299;74;21085;-65
2022/08/26 06:26:59;;;;;;;26.12;4.00;;;27.00;53.30;;;;;;1938040;74;21108;-65
2022/08/26 06:29:32;;;;;;;17.82;3.80;;;27.10;53.10;;;;;;1938051;74;21029;-65
2022/08/26 06:32:02;;;;;;;21.87;3.67;;;27.10;53.30;;;;;;1938095;74;21022;-65
2022/08/26 06:34:32;;;;;;;20.08;3.17;;;27.10;53.60;;;;;;1938269;74;21095;-65
2022/08/26 06:37:02;;;;;;;16.23;3.42;;;27.20;52.90;;;;;;1938199;74;21107;-65
2022/08/26 06:39:32;;;;;;;19.12;3.12;;;27.20;53.10;;;;;;1938230;74;21096;-64
2022/08/26 06:42:01;;;;;;;18.67;3.83;;;27.30;52.90;;;;;;1938282;74;21022;-65
2022/08/26 06:44:31;;;;;;;12.55;3.00;;;27.40;52.80;;;;;;1938174;74;21034;-65
2022/08/26 06:47:00;;;;;;;25.62;6.40;;;27.50;52.70;;;;;;1938206;74;21026;-65
2022/08/26 06:49:30;;;;;;;17.57;4.70;;;27.50;52.60;;;;;;1938288;74;21022;-65
2022/08/26 06:51:59;;;;;;;15.43;3.00;;;27.60;52.90;;;;;;1938005;74;21076;-65
2022/08/26 06:54:30;;;;;;;14.73;3.98;;;27.60;52.80;;;;;;1938109;74;21083;-64
2022/08/26 06:56:59;;;;;;;11.08;3.30;;;27.70;52.80;;;;;;1938094;74;21088;-65
2022/08/26 06:59:29;;;;;;;21.68;3.52;;;27.70;52.70;;;;;;1938062;74;21021;-65
2022/08/26 07:01:59;;;;;;;15.65;3.20;;;27.70;52.50;;;;;;1938027;74;21018;-64
2022/08/26 07:04:28;;;;;;;19.65;3.15;;;27.80;52.60;;;;;;1941479;74;21033;-65
2022/08/26 07:06:58;;;;;;;20.77;3.52;;;27.80;52.60;;;;;;1941361;74;21002;-65
2022/08/26 07:09:31;;;;;;;29.02;11.93;;;27.80;52.70;;;;;;1941355;74;21073;-65
2022/08/26 07:12:00;;;;;;;19.92;4.30;;;27.80;52.90;;;;;;1941469;74;21432;-65
2022/08/26 07:14:30;;;;;;;22.67;4.95;;;27.90;53.00;;;;;;1941254;74;21014;-65
2022/08/26 07:17:00;;;;;;;14.90;3.33;;;28.00;53.10;;;;;;1941381;74;21107;-65
2022/08/26 07:19:29;;;;;;;17.32;4.60;;;28.10;53.00;;;;;;1941289;74;20994;-65
2022/08/26 07:22:00;;;;;;;37.15;5.95;;;28.10;52.90;;;;;;1941285;74;21083;-65
2022/08/26 07:24:30;;;;;;;15.63;3.52;;;28.20;53.10;;;;;;1941406;74;20998;-65
2022/08/26 07:27:00;;;;;;;16.27;3.70;;;28.30;52.90;;;;;;1941383;74;21018;-66
2022/08/26 07:29:30;;;;;;;17.00;4.15;;;28.30;52.70;;;;;;1941588;74;21042;-65
2022/08/26 07:32:00;;;;;;;21.70;3.52;;;28.30;52.50;;;;;;1941533;74;21022;-66
2022/08/26 07:34:31;;;;;;;15.93;3.20;;;28.30;52.40;;;;;;1941560;74;21072;-65
2022/08/26 07:37:00;;;;;;;16.45;4.05;;;28.40;52.50;;;;;;1941315;74;21440;-66
2022/08/26 07:39:30;;;;;;;17.57;4.45;;;28.40;52.80;;;;;;1941374;73;21010;-65
2022/08/26 07:42:05;;;;;;;16.50;3.50;;;28.50;52.50;;;;;;1941726;74;21054;-65
2022/08/26 07:44:35;;;;;;;17.40;3.30;;;28.60;52.40;;;;;;1941502;74;20998;-65
2022/08/26 07:47:05;;;;;;;19.80;3.42;;;28.60;52.40;;;;;;1941459;74;21087;-65
2022/08/26 07:49:35;;;;;;;17.57;4.87;;;28.70;52.40;;;;;;1941371;74;21079;-66
2022/08/26 07:52:05;;;;;;;18.45;3.17;;;28.70;52.60;;;;;;1941486;74;21095;-65
2022/08/26 07:54:36;;;;;;;22.45;5.05;;;28.80;52.50;;;;;;1941361;74;21076;-65
2022/08/26 07:57:05;;;;;;;25.43;4.87;;;28.80;52.60;;;;;;1941353;73;21161;-65
2022/08/26 07:59:35;;;;;;;19.30;4.87;;;28.90;52.60;;;;;;1941361;74;21013;-65
2022/08/26 08:02:04;;;;;;;18.17;3.87;;;29.00;52.40;;;;;;1941455;74;21022;-65
2022/08/26 08:04:34;;;;;;;19.60;4.08;;;29.10;52.80;;;;;;1941215;74;21054;-65
2022/08/26 08:07:03;;;;;;;15.90;3.55;;;29.10;52.20;;;;;;1941350;74;21022;-65
2022/08/26 08:09:44;;;;;;;23.15;4.20;;;29.20;52.20;;;;;;1941395;74;21021;-65
2022/08/26 08:12:21;;;;;;;17.32;3.62;;;29.20;52.10;;;;;;1921203;73;21042;-65
2022/08/26 08:14:51;;;;;;;22.40;5.70;;;29.20;52.10;;;;;;1917984;74;21054;-65
2022/08/26 08:17:20;;;;;;;26.30;4.75;;;29.20;52.20;;;;;;1917946;75;21046;-65
2022/08/26 08:19:49;;;;;;;24.57;4.22;;;29.10;52.20;;;;;;1917829;75;21099;-65
2022/08/26 08:22:22;;;;;;;14.80;3.83;;;29.10;52.40;;;;;;1918024;75;21433;-65
2022/08/26 08:24:50;;;;;;;32.28;4.50;;;29.10;52.60;;;;;;1917712;75;21034;-65
2022/08/26 08:27:19;;;;;;;21.40;4.50;;;29.20;52.70;;;;;;1917672;75;21030;-65
2022/08/26 08:29:49;;;;;;;21.00;4.30;;;29.30;52.30;;;;;;1917871;75;21030;-65
2022/08/26 08:32:18;;;;;;;22.42;3.35;;;29.40;52.30;;;;;;1917939;75;21088;-65
2022/08/26 08:34:47;;;;;;;12.95;3.47;;;29.40;52.30;;;;;;1917836;75;21107;-65
2022/08/26 08:37:17;;;;;;;24.90;4.65;;;29.50;52.50;;;;;;1917874;75;21046;-65
2022/08/26 08:39:46;;;;;;;19.37;3.98;;;29.60;52.40;;;;;;1917797;73;21010;-65
2022/08/26 08:42:21;;;;;;;18.30;3.70;;;29.70;52.40;;;;;;1917751;75;21081;-65
2022/08/26 08:44:52;;;;;;;26.00;6.22;;;29.80;52.00;;;;;;1917928;75;21030;-65
2022/08/26 08:47:27;;;;;;;20.68;4.47;;;29.90;52.10;;;;;;1917869;75;21116;-65
2022/08/26 08:49:59;;;;;;;21.00;4.05;;;29.90;51.90;;;;;;1909597;73;21021;-65
2022/08/26 08:52:35;;;;;;;31.02;4.45;;;29.90;52.00;;;;;;1917921;75;21469;-65
2022/08/26 08:55:07;;;;;;;22.93;4.30;;;29.90;52.00;;;;;;1917996;75;21022;-66
2022/08/26 08:57:51;;;;;;;28.65;4.70;;;30.00;52.10;;;;;;1918048;75;21038;-65
2022/08/26 09:00:23;;;;;;;19.87;3.80;;;30.00;51.90;;;;;;1918136;75;21117;-65
2022/08/26 09:02:59;;;;;;;19.62;3.45;;;30.00;51.70;;;;;;1917973;75;21007;-65
2022/08/26 09:05:38;;;;;;;15.53;4.30;;;30.00;51.80;;;;;;1917515;74;20994;-65
2022/08/26 09:08:18;;;;;;;21.30;3.75;;;30.00;51.90;;;;;;1917531;74;21111;-65
2022/08/26 09:10:55;;;;;;;18.80;4.33;;;30.00;52.10;;;;;;1923197;73;21114;-64
2022/08/26 09:13:25;;;;;;;17.50;4.72;;;30.00;52.20;;;;;;1924628;74;21024;-65
2022/08/26 09:16:08;;;;;;;20.08;4.28;;;30.10;52.20;;;;;;1924746;74;21101;-65
2022/08/26 09:19:10;;;;;;;26.87;3.93;;;30.20;52.20;;;;;;1924997;74;21052;-65
2022/08/26 09:21:39;;;;;;;14.47;3.00;;;30.20;52.20;;;;;;1924676;74;21024;-65
2022/08/26 09:24:08;;;;;;;23.02;3.72;;;30.30;52.20;;;;;;1924693;74;21035;-65
2022/08/26 09:26:44;;;;;;;21.82;3.95;;;30.30;52.00;;;;;;1924709;74;20996;-64
2022/08/26 09:29:22;;;;;;;21.30;4.70;;;30.40;52.00;;;;;;1924809;74;21039;-65
2022/08/26 09:31:52;;;;;;;16.77;4.08;;;30.40;52.00;;;;;;1922494;74;21122;-65
2022/08/26 09:34:24;;;;;;;21.37;4.42;;;30.50;51.80;;;;;;1924648;74;21160;-64
2022/08/26 09:36:58;;;;;;;24.52;3.98;;;30.70;51.70;;;;;;1924781;74;21478;-64
2022/08/26 09:39:38;;;;;;;21.82;4.65;;;30.70;51.70;;;;;;1924906;74;21602;-65
2022/08/26 09:42:13;;;;;;;17.20;4.28;;;30.70;51.50;;;;;;1924573;74;20996;-64
2022/08/26 09:45:05;;;;;;;30.27;6.15;;;30.80;51.40;;;;;;1924769;74;21020;-64
2022/08/26 09:47:42;;;;;;;22.67;5.95;;;30.70;51.50;;;;;;1924692;74;21093;-64
2022/08/26 09:50:27;;;;;;;12.88;4.58;;;30.70;51.60;;;;;;1923384;74;21110;-64
2022/08/26 09:53:13;;;;;;;;;;;30.70;51.60;;;;;;1927484;74;21070;-64
2022/08/26 09:55:45;;;;;;;16.90;5.45;;;30.70;51.50;;;;;;1924604;74;20100;-64
2022/08/26 09:58:17;;;;;;;15.85;4.05;;;30.70;51.60;;;;;;1924452;74;21027;-64
2022/08/26 10:01:00;;;;;;;22.73;5.85;;;30.60;51.70;;;;;;1922722;74;21482;-63
2022/08/26 10:03:31;;;;;;;15.20;4.78;;;30.60;51.60;;;;;;1924546;74;21043;-63
2022/08/26 10:06:06;;;;;;;18.52;5.75;;;30.60;51.80;;;;;;1924698;74;21106;-63
2022/08/26 10:08:41;;;;;;;16.40;5.53;;;30.70;51.70;;;;;;1924780;74;21102;-63
2022/08/26 10:11:31;;;;;;;18.65;4.53;;;30.80;51.60;;;;;;1924673;73;21054;-63
2022/08/26 10:14:03;;;;;;;19.15;4.37;;;30.80;51.60;;;;;;1923656;74;21028;-63
2022/08/26 10:16:38;;;;;;;18.55;5.30;;;30.90;51.40;;;;;;1924672;74;20980;-63
2022/08/26 10:22:04;;;;;;;19.42;6.08;;;31.10;51.20;;;;;;1907117;74;21056;-64
2022/08/26 10:24:39;;;;;;;24.43;6.12;;;31.20;51.30;;;;;;1906560;74;21447;-63
2022/08/26 10:27:23;;;;;;;16.23;3.90;;;31.20;51.30;;;;;;1901444;74;21098;-64
2022/08/26 10:29:55;;;;;;;15.30;3.72;;;31.30;50.90;;;;;;1887573;75;21064;-63
2022/08/26 10:32:29;;;;;;;13.60;3.80;;;31.30;50.70;;;;;;1906756;74;21009;-63
2022/08/26 10:34:59;;;;;;;14.63;4.08;;;31.30;50.80;;;;;;1900268;75;21432;-63
2022/08/26 10:37:33;;;;;;;14.25;3.98;;;31.30;51.00;;;;;;1906713;74;20997;-63
2022/08/26 10:40:06;;;;;;;13.28;4.28;;;31.40;50.80;;;;;;1906774;75;21044;-63
2022/08/26 10:42:56;;;;;;;13.43;4.37;;;31.50;50.60;;;;;;1906223;74;21029;-63
2022/08/26 10:45:28;;;;;;;18.20;4.67;;;31.50;50.20;;;;;;1906886;74;21021;-63
2022/08/26 10:48:03;;;;;;;22.75;3.75;;;31.50;50.40;;;;;;1906905;75;21408;-63
2022/08/26 10:50:38;;;;;;;22.07;4.37;;;31.60;50.50;;;;;;1906804;75;21462;-63
2022/08/26 10:53:22;;;;;;;21.97;4.20;;;31.60;50.00;;;;;;1906874;74;21114;-63
2022/08/26 10:55:56;;;;;;;24.47;6.07;;;31.70;50.10;;;;;;1907123;74;21488;-63
2022/08/26 10:58:31;;;;;;;20.92;4.12;;;31.70;50.20;;;;;;1906772;74;21458;-62
2022/08/26 11:04:08;;;;;;;16.57;4.05;;;31.80;49.30;;;;;;1906862;74;20099;-62
2022/08/26 11:06:38;;;;;;;15.43;4.17;;;31.90;50.00;;;;;;1906790;74;21037;-62
2022/08/26 11:09:08;;;;;;;15.68;3.90;;;31.90;49.60;;;;;;1906745;74;21025;-62
2022/08/26 11:11:44;;;;;;;21.60;4.50;;;31.90;49.60;;;;;;1906829;75;21013;-62
2022/08/26 11:14:25;;;;;;;14.23;4.00;;;32.00;49.40;;;;;;1906750;74;21095;-62
2022/08/26 11:16:58;;;;;;;17.90;5.08;;;32.00;49.40;;;;;;1906809;75;21017;-62
2022/08/26 11:19:40;;;;;;;10.70;4.03;;;32.00;49.50;;;;;;1906915;75;21095;-62
2022/08/26 11:22:12;;;;;;;11.05;3.92;;;32.10;49.20;;;;;;1895385;75;21041;-61
2022/08/26 11:24:48;;;;;;;16.70;3.85;;;32.10;49.20;;;;;;1894545;75;21055;-62
2022/08/26 11:27:38;;;;;;;7.97;3.30;;;32.10;49.30;;;;;;1894941;76;21467;-61
2022/08/26 11:30:15;;;;;;;16.87;4.12;;;32.10;49.20;;;;;;1891622;73;21084;-61
2022/08/26 11:32:56;;;;;;;16.25;4.08;;;32.20;48.70;;;;;;1898838;75;21158;-61
2022/08/26 11:35:28;;;;;;;10.90;3.60;;;32.20;48.50;;;;;;1898924;75;21013;-61
2022/08/26 11:38:05;;;;;;;22.10;3.65;;;32.20;48.40;;;;;;1898837;75;20998;-61
2022/08/26 11:40:40;;;;;;;13.30;4.10;;;32.20;48.50;;;;;;1898965;75;21052;-62
2022/08/26 11:43:12;;;;;;;15.78;3.98;;;32.30;48.40;;;;;;1898945;75;21030;-61
2022/08/26 11:45:47;;;;;;;15.78;4.37;;;32.30;48.00;;;;;;1898985;75;21053;-61
2022/08/26 11:48:24;;;;;;;23.62;4.30;;;32.20;47.90;;;;;;1898972;75;21452;-61
2022/08/26 11:50:56;;;;;;;13.65;4.03;;;32.20;48.00;;;;;;1898845;75;21126;-61
2022/08/26 11:53:26;;;;;;;12.80;3.67;;;32.30;48.00;;;;;;1898884;75;21013;-61
2022/08/26 11:55:57;;;;;;;17.55;3.87;;;32.30;48.20;;;;;;1899006;75;21162;-61
2022/08/26 11:58:27;;;;;;;14.87;3.50;;;32.40;48.10;;;;;;1898939;75;21150;-61
2022/08/26 12:01:02;;;;;;;10.98;3.62;;;32.40;48.00;;;;;;1898951;75;21037;-62
2022/08/26 12:03:43;;;;;;;15.78;3.65;;;32.40;47.80;;;;;;1896175;75;21096;-62
2022/08/26 12:06:24;;;;;;;21.82;3.77;;;32.50;47.60;;;;;;1898989;75;21053;-62
2022/08/26 12:08:56;;;;;;;14.15;3.62;;;32.60;47.50;;;;;;1898871;75;21009;-62
2022/08/26 12:11:31;;;;;;;12.73;3.33;;;32.50;47.10;;;;;;1898986;75;21087;-62
2022/08/26 12:14:03;;;;;;;18.25;3.87;;;32.50;47.00;;;;;;1899009;75;21117;-62
2022/08/26 12:16:40;;;;;;;10.68;4.00;;;32.50;47.10;;;;;;1898953;75;21075;-62
2022/08/26 12:19:30;;;;;;;13.70;4.28;;;32.60;47.30;;;;;;1898790;75;21049;-62
2022/08/26 12:22:20;;;;;;;16.45;3.75;;;32.50;47.20;;;;;;1898800;75;21499;-62
2022/08/26 12:24:58;;;;;;;13.35;4.35;;;32.60;46.90;;;;;;1898708;75;21432;-63
2022/08/26 12:27:41;;;;;;;16.15;4.15;;;32.60;47.30;;;;;;1883711;74;21093;-63
2022/08/26 12:30:20;;;;;;;16.77;4.00;;;32.70;47.20;;;;;;1926985;74;21104;-63
2022/08/26 12:32:52;;;;;;;19.40;5.05;;;32.70;47.20;;;;;;1927031;74;21045;-62
2022/08/26 12:35:22;;;;;;;20.43;4.30;;;32.70;47.10;;;;;;1924607;74;21484;-63
2022/08/26 12:37:54;;;;;;;12.00;4.10;;;32.80;46.90;;;;;;1927244;74;21083;-63
2022/08/26 12:40:29;;;;;;;8.43;3.33;;;32.80;46.70;;;;;;1927223;74;21095;-62
2022/08/26 12:43:00;;;;;;;18.07;4.92;;;32.90;46.70;;;;;;1927027;73;21185;-63
2022/08/26 12:45:32;;;;;;;15.63;4.80;;;32.80;46.70;;;;;;1927086;74;21053;-63
2022/08/26 12:48:07;;;;;;;27.82;3.98;;;32.80;46.60;;;;;;1927222;74;21045;-63
2022/08/26 12:50:48;;;;;;;14.65;4.33;;;32.80;46.50;;;;;;1926330;74;21118;-63
2022/08/26 12:53:26;;;;;;;15.65;5.83;;;32.90;46.60;;;;;;1927283;74;21017;-63
2022/08/26 12:55:57;;;;;;;17.23;4.42;;;32.90;46.60;;;;;;1927272;74;21529;-63
2022/08/26 12:58:38;;;;;;;16.27;5.28;;;32.90;46.40;;;;;;1925353;74;21559;-63
2022/08/26 13:01:09;;;;;;;13.83;4.55;;;33.00;46.00;;;;;;1927219;74;21002;-63
2022/08/26 13:03:44;;;;;;;18.20;3.98;;;33.00;46.10;;;;;;1927271;74;21050;-63
2022/08/26 13:06:26;;;;;;;21.25;4.28;;;33.00;46.10;;;;;;1927371;74;21092;-63
2022/08/26 13:09:05;;;;;;;19.35;5.95;;;33.00;46.00;;;;;;1927170;74;21021;-62
2022/08/26 13:11:43;;;;;;;19.60;4.75;;;33.00;45.80;;;;;;1922968;74;21096;-62
2022/08/26 13:14:15;;;;;;;21.82;5.08;;;33.00;45.70;;;;;;1927349;74;21417;-62
2022/08/26 13:16:48;;;;;;;9.25;3.77;;;32.90;45.60;;;;;;1927263;74;21026;-62
2022/08/26 13:19:20;;;;;;;14.78;3.60;;;32.90;45.50;;;;;;1927138;74;21029;-63
2022/08/26 13:21:55;;;;;;;15.83;4.25;;;32.90;45.50;;;;;;1926859;74;21106;-62
2022/08/26 13:24:36;;;;;;;18.00;4.22;;;33.00;45.70;;;;;;1927245;74;21099;-62
2022/08/26 13:27:08;;;;;;;17.95;5.37;;;33.00;45.50;;;;;;1927305;74;21041;-62
2022/08/26 13:29:38;;;;;;;12.80;4.55;;;32.90;45.10;;;;;;1927168;74;21123;-62
2022/08/26 13:32:08;;;;;;;21.68;5.17;;;33.00;45.30;;;;;;1927233;74;21021;-62
2022/08/26 13:34:38;;;;;;;18.52;5.42;;;32.90;45.30;;;;;;1927312;74;21030;-61
2022/08/26 13:37:07;;;;;;;12.25;3.92;;;32.90;45.20;;;;;;1927300;74;21096;-61
2022/08/26 13:39:38;;;;;;;27.50;4.92;;;32.90;45.10;;;;;;1927195;74;21026;-62
2022/08/26 13:42:08;;;;;;;19.32;4.28;;;32.90;45.20;;;;;;1927190;74;21014;-62
2022/08/26 13:44:37;;;;;;;16.77;4.03;;;32.80;45.10;;;;;;1927261;74;21087;-61
2022/08/26 13:47:07;;;;;;;17.75;4.35;;;32.90;45.30;;;;;;1927328;74;21088;-62
2022/08/26 13:49:37;;;;;;;18.50;4.15;;;32.90;45.60;;;;;;1927331;74;21009;-62
2022/08/26 13:52:07;;;;;;;14.13;3.30;;;32.90;45.70;;;;;;1927227;74;21022;-62
2022/08/26 13:54:36;;;;;;;8.95;3.33;;;32.90;45.70;;;;;;1927329;74;21022;-62
2022/08/26 13:57:06;;;;;;;9.98;3.62;;;32.90;45.40;;;;;;1927346;74;21079;-62
2022/08/26 13:59:35;;;;;;;10.98;3.20;;;32.90;45.10;;;;;;1927306;74;21022;-62